createdAt,value
2023-09-18T00:00:10.054Z,100474.59
2023-09-18T00:00:22.235Z,100477.81
2023-09-18T00:00:35.523Z,100476.50
2023-09-18T00:00:48.571Z,100479.19
2023-09-18T00:01:00.620Z,100469.41
2023-09-18T00:01:12.839Z,100480.25
2023-09-18T00:01:24.809Z,100477.53
2023-09-18T00:01:37.111Z,100472.13
2023-09-18T00:01:49.394Z,100468.59
2023-09-18T00:02:01.362Z,100465.56
2023-09-18T00:02:13.427Z,100470.13
2023-09-18T00:02:25.528Z,100471.81
2023-09-18T00:02:37.627Z,100464.72
2023-09-18T00:02:49.659Z,100476.72
2023-09-18T00:03:01.759Z,100473.19
2023-09-18T00:03:13.878Z,100473.44
2023-09-18T00:03:26.083Z,100473.19
2023-09-18T00:03:38.247Z,100473.19
2023-09-18T00:03:50.357Z,100473.44
2023-09-18T00:04:02.268Z,100475.56
2023-09-18T00:04:14.151Z,100475.91
2023-09-18T00:04:26.063Z,100480.50
2023-09-18T00:04:38.140Z,100471.00
2023-09-18T00:04:50.082Z,100474.50
2023-09-18T00:05:02.095Z,100474.75
2023-09-18T00:05:14.115Z,100478.03
2023-09-18T00:05:28.289Z,100477.44
2023-09-18T00:05:40.416Z,100472.03
2023-09-18T00:05:53.459Z,100471.81
2023-09-18T00:06:05.366Z,100474.75
2023-09-18T00:06:17.447Z,100470.13
2023-09-18T00:06:29.379Z,100475.56
2023-09-18T00:06:41.494Z,100472.84
2023-09-18T00:06:53.352Z,100472.03
2023-09-18T00:07:06.072Z,100475.00
2023-09-18T00:07:17.933Z,100472.28
2023-09-18T00:07:29.889Z,100465.22
2023-09-18T00:07:41.721Z,100475.56
2023-09-18T00:07:53.759Z,100477.44
2023-09-18T00:08:06.185Z,100473.09
2023-09-18T00:08:19.070Z,100471.44
2023-09-18T00:08:32.713Z,100473.34
2023-09-18T00:08:44.661Z,100473.34
2023-09-18T00:08:56.505Z,100476.03
2023-09-18T00:09:08.513Z,100474.16
2023-09-18T00:09:20.522Z,100471.72
2023-09-18T00:09:32.332Z,100472.28
2023-09-18T00:09:44.211Z,100471.72
2023-09-18T00:09:56.167Z,100474.16
2023-09-18T00:10:08.512Z,100473.34
2023-09-18T00:10:24.404Z,100473.34
2023-09-18T00:10:36.615Z,100465.72
2023-09-18T00:10:50.420Z,100471.44
2023-09-18T00:11:02.385Z,100469.81
2023-09-18T00:11:14.320Z,100464.03
2023-09-18T00:11:26.271Z,100465.44
2023-09-18T00:11:38.425Z,100467.09
2023-09-18T00:11:50.163Z,100471.72
2023-09-18T00:12:02.080Z,100464.91
2023-09-18T00:12:13.936Z,100466.28
2023-09-18T00:12:25.762Z,100472.53
2023-09-18T00:12:37.610Z,100465.44
2023-09-18T00:12:49.694Z,100464.63
2023-09-18T00:13:01.692Z,100469.00
2023-09-18T00:13:13.694Z,100461.13
2023-09-18T00:13:25.645Z,100463.81
2023-09-18T00:13:37.680Z,100464.63
2023-09-18T00:13:50.866Z,100463.00
2023-09-18T00:14:02.825Z,100459.72
2023-09-18T00:14:14.737Z,100468.41
2023-09-18T00:14:26.737Z,100460.28
2023-09-18T00:14:38.971Z,100462.19
2023-09-18T00:14:51.549Z,100461.13
2023-09-18T00:15:03.987Z,100462.19
2023-09-18T00:15:15.921Z,100458.63
2023-09-18T00:15:27.837Z,100460.03
2023-09-18T00:15:39.908Z,100461.34
2023-09-18T00:15:55.948Z,100462.19
2023-09-18T00:16:08.302Z,100456.78
2023-09-18T00:16:20.514Z,100458.41
2023-09-18T00:16:40.974Z,100460.03
2023-09-18T00:17:00.164Z,100455.13
2023-09-18T00:17:12.346Z,100454.28
2023-09-18T00:17:24.243Z,100460.53
2023-09-18T00:17:36.550Z,100459.72
2023-09-18T00:17:48.663Z,100459.72
2023-09-18T00:18:00.706Z,100464.91
2023-09-18T00:18:12.762Z,100458.03
2023-09-18T00:18:24.736Z,100459.72
2023-09-18T00:18:36.678Z,100454.53
2023-09-18T00:18:48.625Z,100461.59
2023-09-18T00:19:00.715Z,100456.19
2023-09-18T00:19:12.677Z,100457.00
2023-09-18T00:19:24.760Z,100453.47
2023-09-18T00:19:36.707Z,100459.72
2023-09-18T00:19:48.628Z,100458.91
2023-09-18T00:20:00.636Z,100457.00
2023-09-18T00:20:12.813Z,100459.72
2023-09-18T00:20:24.720Z,100459.94
2023-09-18T00:20:36.777Z,100458.03
2023-09-18T00:20:48.824Z,100447.47
2023-09-18T00:21:00.829Z,100457.22
2023-09-18T00:21:13.300Z,100451.81
2023-09-18T00:21:25.827Z,100458.03
2023-09-18T00:21:37.998Z,100451.00
2023-09-18T00:21:50.086Z,100458.03
2023-09-18T00:22:02.081Z,100451.81
2023-09-18T00:22:14.159Z,100448.31
2023-09-18T00:22:26.311Z,100451.00
2023-09-18T00:22:38.416Z,100452.31
2023-09-18T00:22:50.264Z,100458.31
2023-09-18T00:23:10.128Z,100456.41
2023-09-18T00:23:22.149Z,100452.91
2023-09-18T00:23:34.391Z,100456.41
2023-09-18T00:23:46.671Z,100456.66
2023-09-18T00:23:58.632Z,100455.59
2023-09-18T00:24:10.515Z,100453.13
2023-09-18T00:24:22.612Z,100453.94
2023-09-18T00:24:34.526Z,100461.25
2023-09-18T00:24:46.448Z,100452.53
2023-09-18T00:24:58.327Z,100455.84
2023-09-18T00:25:10.192Z,100453.13
2023-09-18T00:25:22.138Z,100455.84
2023-09-18T00:25:34.010Z,100458.75
2023-09-18T00:25:45.895Z,100459.63
2023-09-18T00:25:57.834Z,100455.00
2023-09-18T00:26:09.856Z,100451.13
2023-09-18T00:26:22.336Z,100451.50
2023-09-18T00:26:37.958Z,100453.13
2023-09-18T00:26:49.920Z,100451.50
2023-09-18T00:27:01.976Z,100458.53
2023-09-18T00:27:15.057Z,100453.13
2023-09-18T00:27:27.003Z,100461.25
2023-09-18T00:27:39.826Z,100447.94
2023-09-18T00:27:51.835Z,100453.63
2023-09-18T00:28:04.447Z,100455.00
2023-09-18T00:28:16.427Z,100459.63
2023-09-18T00:28:28.252Z,100450.06
2023-09-18T00:28:40.255Z,100459.84
2023-09-18T00:28:53.857Z,100450.66
2023-09-18T00:29:06.243Z,100460.66
2023-09-18T00:29:18.201Z,100464.44
2023-09-18T00:29:30.311Z,100456.06
2023-09-18T00:29:42.313Z,100456.06
2023-09-18T00:29:54.188Z,100458.44
2023-09-18T00:30:07.643Z,100453.63
2023-09-18T00:30:19.987Z,100451.94
2023-09-18T00:30:32.296Z,100457.13
2023-09-18T00:30:48.971Z,100457.13
2023-09-18T00:31:01.314Z,100451.13
2023-09-18T00:31:13.350Z,100453.03
2023-09-18T00:31:25.344Z,100456.31
2023-09-18T00:31:37.416Z,100461.38
2023-09-18T00:31:49.368Z,100461.72
2023-09-18T00:32:01.555Z,100455.97
2023-09-18T00:32:13.551Z,100454.34
2023-09-18T00:32:25.701Z,100460.31
2023-09-18T00:32:37.743Z,100461.16
2023-09-18T00:32:50.274Z,100452.22
2023-09-18T00:33:02.407Z,100457.84
2023-09-18T00:33:14.517Z,100459.47
2023-09-18T00:33:26.550Z,100451.38
2023-09-18T00:33:38.690Z,100455.16
2023-09-18T00:33:50.579Z,100456.78
2023-09-18T00:34:02.513Z,100458.66
2023-09-18T00:34:14.599Z,100461.38
2023-09-18T00:34:26.486Z,100464.91
2023-09-18T00:34:38.281Z,100463.84
2023-09-18T00:34:50.220Z,100461.16
2023-09-18T00:35:02.098Z,100459.47
2023-09-18T00:35:14.201Z,100461.59
2023-09-18T00:35:27.399Z,100457.03
2023-09-18T00:35:39.311Z,100459.47
2023-09-18T00:35:52.789Z,100457.03
2023-09-18T00:36:05.131Z,100462.19
2023-09-18T00:36:17.111Z,100450.56
2023-09-18T00:36:29.252Z,100466.78
2023-09-18T00:36:41.661Z,100447.03
2023-09-18T00:36:53.507Z,100461.59
2023-09-18T00:37:05.788Z,100462.44
2023-09-18T00:37:17.779Z,100457.03
2023-09-18T00:37:30.307Z,100457.03
2023-09-18T00:37:42.219Z,100457.84
2023-09-18T00:37:54.114Z,100465.16
2023-09-18T00:38:05.993Z,100456.19
2023-09-18T00:38:18.342Z,100456.19
2023-09-18T00:38:30.301Z,100459.75
2023-09-18T00:38:42.213Z,100456.41
2023-09-18T00:38:54.481Z,100457.03
2023-09-18T00:39:06.661Z,100463.25
2023-09-18T00:39:18.718Z,100462.44
2023-09-18T00:39:30.801Z,100460.75
2023-09-18T00:39:43.556Z,100457.03
2023-09-18T00:39:55.744Z,100453.72
2023-09-18T00:40:08.705Z,100460.56
2023-09-18T00:40:20.895Z,100457.22
2023-09-18T00:40:33.415Z,100453.72
2023-09-18T00:40:45.456Z,100456.41
2023-09-18T00:40:57.505Z,100458.06
2023-09-18T00:41:09.578Z,100454.75
2023-09-18T00:41:21.594Z,100452.63
2023-09-18T00:41:34.244Z,100458.06
2023-09-18T00:41:46.293Z,100454.53
2023-09-18T00:41:58.361Z,100457.22
2023-09-18T00:42:10.650Z,100453.72
2023-09-18T00:42:22.882Z,100465.34
2023-09-18T00:42:34.769Z,100457.22
2023-09-18T00:42:46.855Z,100461.00
2023-09-18T00:42:59.097Z,100460.44
2023-09-18T00:43:11.083Z,100462.88
2023-09-18T00:43:23.106Z,100459.94
2023-09-18T00:43:38.018Z,100455.59
2023-09-18T00:43:49.949Z,100458.31
2023-09-18T00:44:03.842Z,100457.22
2023-09-18T00:44:16.320Z,100458.31
2023-09-18T00:44:28.415Z,100454.75
2023-09-18T00:44:40.967Z,100457.47
2023-09-18T00:44:53.549Z,100464.53
2023-09-18T00:45:06.406Z,100454.16
2023-09-18T00:45:18.638Z,100453.13
2023-09-18T00:45:30.986Z,100462.66
2023-09-18T00:45:46.757Z,100451.25
2023-09-18T00:45:59.648Z,100447.94
2023-09-18T00:46:11.997Z,100452.91
2023-09-18T00:46:24.984Z,100445.59
2023-09-18T00:46:37.458Z,100457.22
2023-09-18T00:46:50.581Z,100454.75
2023-09-18T00:47:02.856Z,100454.53
2023-09-18T00:47:16.730Z,100455.00
2023-09-18T00:47:29.698Z,100455.34
2023-09-18T00:47:42.356Z,100455.84
2023-09-18T00:47:54.954Z,100450.19
2023-09-18T00:48:07.627Z,100455.34
2023-09-18T00:48:20.523Z,100460.75
2023-09-18T00:48:32.800Z,100452.31
2023-09-18T00:48:44.856Z,100457.22
2023-09-18T00:48:56.884Z,100450.19
2023-09-18T00:49:09.247Z,100451.81
2023-09-18T00:49:21.826Z,100454.34
2023-09-18T00:49:33.843Z,100454.53
2023-09-18T00:49:50.223Z,100450.19
2023-09-18T00:50:02.949Z,100455.34
2023-09-18T00:50:15.740Z,100446.41
2023-09-18T00:50:27.938Z,100455.34
2023-09-18T00:50:40.106Z,100458.06
2023-09-18T00:50:52.079Z,100454.34
2023-09-18T00:51:04.448Z,100452.91
2023-09-18T00:51:17.436Z,100448.06
2023-09-18T00:51:29.562Z,100455.34
2023-09-18T00:51:41.730Z,100458.91
2023-09-18T00:51:53.931Z,100459.94
2023-09-18T00:52:07.573Z,100459.13
2023-09-18T00:52:21.270Z,100454.53
2023-09-18T00:52:33.569Z,100454.53
2023-09-18T00:52:45.477Z,100451.00
2023-09-18T00:52:57.329Z,100453.72
2023-09-18T00:53:10.124Z,100453.13
2023-09-18T00:53:24.632Z,100460.16
2023-09-18T00:53:38.520Z,100454.53
2023-09-18T00:53:50.770Z,100456.19
2023-09-18T00:54:02.979Z,100459.94
2023-09-18T00:54:17.855Z,100455.34
2023-09-18T00:54:30.892Z,100450.78
2023-09-18T00:54:44.939Z,100454.53
2023-09-18T00:54:56.899Z,100461.38
2023-09-18T00:55:09.409Z,100454.34
2023-09-18T00:55:21.457Z,100455.97
2023-09-18T00:55:33.378Z,100460.56
2023-09-18T00:55:45.414Z,100463.25
2023-09-18T00:56:00.315Z,100453.47
2023-09-18T00:56:13.112Z,100459.47
2023-09-18T00:56:28.303Z,100457.84
2023-09-18T00:56:40.250Z,100459.47
2023-09-18T00:56:54.394Z,100444.53
2023-09-18T00:57:06.948Z,100455.97
2023-09-18T00:57:18.955Z,100459.47
2023-09-18T00:57:30.853Z,100462.19
2023-09-18T00:57:43.532Z,100455.16
2023-09-18T00:57:56.536Z,100461.38
2023-09-18T00:58:08.920Z,100461.38
2023-09-18T00:58:20.905Z,100459.47
2023-09-18T00:58:34.139Z,100452.22
2023-09-18T00:58:47.618Z,100451.38
2023-09-18T00:59:00.406Z,100454.91
2023-09-18T00:59:13.970Z,100460.06
2023-09-18T00:59:26.099Z,100456.78
2023-09-18T00:59:38.422Z,100451.38
2023-09-18T00:59:50.399Z,100447.84
2023-09-18T01:00:03.289Z,100453.03
2023-09-18T01:00:15.657Z,100460.31
2023-09-18T01:00:27.694Z,100455.97
2023-09-18T01:00:40.754Z,100457.03
2023-09-18T01:00:52.848Z,100451.38
2023-09-18T01:01:05.434Z,100463.84
2023-09-18T01:01:19.840Z,100452.22
2023-09-18T01:01:32.983Z,100451.38
2023-09-18T01:01:46.438Z,100449.50
2023-09-18T01:02:00.437Z,100449.72
2023-09-18T01:02:12.802Z,100463.25
2023-09-18T01:02:25.156Z,100449.72
2023-09-18T01:02:37.457Z,100448.06
2023-09-18T01:02:50.087Z,100451.38
2023-09-18T01:03:02.995Z,100445.38
2023-09-18T01:03:15.450Z,100456.78
2023-09-18T01:03:27.531Z,100449.72
2023-09-18T01:03:39.515Z,100445.38
2023-09-18T01:03:52.066Z,100450.56
2023-09-18T01:04:04.397Z,100442.88
2023-09-18T01:04:16.561Z,100454.34
2023-09-18T01:04:30.743Z,100454.53
2023-09-18T01:04:43.351Z,100454.53
2023-09-18T01:04:56.800Z,100453.72
2023-09-18T01:05:09.038Z,100454.53
2023-09-18T01:05:21.014Z,100448.31
2023-09-18T01:05:33.653Z,100459.13
2023-09-18T01:05:45.667Z,100454.53
2023-09-18T01:05:57.622Z,100452.91
2023-09-18T01:06:10.602Z,100455.59
2023-09-18T01:06:22.661Z,100454.75
2023-09-18T01:06:35.144Z,100450.19
2023-09-18T01:06:47.076Z,100455.59
2023-09-18T01:06:58.999Z,100455.59
2023-09-18T01:07:11.409Z,100457.47
2023-09-18T01:07:23.434Z,100453.34
2023-09-18T01:07:35.417Z,100460.16
2023-09-18T01:07:47.802Z,100458.31
2023-09-18T01:08:00.001Z,100455.84
2023-09-18T01:08:12.077Z,100457.72
2023-09-18T01:08:24.298Z,100453.13
2023-09-18T01:08:36.426Z,100454.44
2023-09-18T01:08:49.035Z,100450.06
2023-09-18T01:09:00.988Z,100454.16
2023-09-18T01:09:13.413Z,100456.31
2023-09-18T01:09:26.007Z,100454.66
2023-09-18T01:09:38.448Z,100451.94
2023-09-18T01:09:50.474Z,100451.72
2023-09-18T01:10:02.333Z,100452.53
2023-09-18T01:10:14.586Z,100452.75
2023-09-18T01:10:33.889Z,100455.47
2023-09-18T01:10:54.481Z,100450.31
2023-09-18T01:11:11.763Z,100453.84
2023-09-18T01:11:31.556Z,100449.47
2023-09-18T01:11:52.389Z,100447.84
2023-09-18T01:12:12.308Z,100456.78
2023-09-18T01:12:31.858Z,100459.47
2023-09-18T01:12:47.988Z,100456.78
2023-09-18T01:13:06.075Z,100455.16
2023-09-18T01:13:22.949Z,100457.03
2023-09-18T01:13:39.641Z,100457.84
2023-09-18T01:13:59.838Z,100451.25
2023-09-18T01:14:20.377Z,100459.97
2023-09-18T01:14:38.459Z,100451.03
2023-09-18T01:14:59.369Z,100447.16
2023-09-18T01:15:15.872Z,100459.38
2023-09-18T01:15:33.866Z,100451.50
2023-09-18T01:15:51.618Z,100456.09
2023-09-18T01:16:07.908Z,100449.03
2023-09-18T01:16:28.562Z,100457.16
2023-09-18T01:16:51.409Z,100454.47
2023-09-18T01:17:04.184Z,100451.75
2023-09-18T01:17:17.608Z,100452.78
2023-09-18T01:17:30.568Z,100457.16
2023-09-18T01:17:43.625Z,100456.31
2023-09-18T01:17:56.176Z,100459.03
2023-09-18T01:18:08.293Z,100454.47
2023-09-18T01:18:20.405Z,100455.50
2023-09-18T01:18:32.320Z,100451.16
2023-09-18T01:18:50.314Z,100454.69
2023-09-18T01:19:02.381Z,100451.97
2023-09-18T01:19:16.456Z,100452.22
2023-09-18T01:19:39.061Z,100449.75
2023-09-18T01:19:51.017Z,100449.97
2023-09-18T01:20:04.376Z,100454.91
2023-09-18T01:20:17.093Z,100456.78
2023-09-18T01:20:29.453Z,100452.47
2023-09-18T01:20:41.330Z,100452.47
2023-09-18T01:20:53.225Z,100454.09
2023-09-18T01:21:05.145Z,100455.97
2023-09-18T01:21:17.385Z,100445.88
2023-09-18T01:21:29.361Z,100455.16
2023-09-18T01:21:41.450Z,100457.88
2023-09-18T01:21:54.031Z,100454.59
2023-09-18T01:22:10.672Z,100450.81
2023-09-18T01:22:22.838Z,100457.28
2023-09-18T01:22:36.306Z,100457.88
2023-09-18T01:22:51.166Z,100449.41
2023-09-18T01:23:03.444Z,100453.50
2023-09-18T01:23:15.609Z,100449.97
2023-09-18T01:23:27.659Z,100449.16
2023-09-18T01:23:40.041Z,100451.88
2023-09-18T01:23:51.983Z,100454.59
2023-09-18T01:24:04.355Z,100457.28
2023-09-18T01:24:16.872Z,100440.91
2023-09-18T01:24:30.530Z,100451.50
2023-09-18T01:24:45.511Z,100451.28
2023-09-18T01:24:57.597Z,100454.00
2023-09-18T01:25:09.621Z,100448.00
2023-09-18T01:25:24.411Z,100449.88
2023-09-18T01:25:36.429Z,100445.28
2023-09-18T01:25:48.313Z,100448.81
2023-09-18T01:26:00.568Z,100449.63
2023-09-18T01:26:12.552Z,100449.63
2023-09-18T01:26:25.966Z,100449.63
2023-09-18T01:26:38.127Z,100443.41
2023-09-18T01:26:50.441Z,100446.34
2023-09-18T01:27:02.615Z,100450.47
2023-09-18T01:27:17.795Z,100443.63
2023-09-18T01:27:29.973Z,100443.88
2023-09-18T01:27:43.992Z,100440.91
2023-09-18T01:27:56.022Z,100448.22
2023-09-18T01:28:08.012Z,100446.34
2023-09-18T01:28:20.796Z,100445.78
2023-09-18T01:28:32.928Z,100441.41
2023-09-18T01:28:46.234Z,100443.06
2023-09-18T01:28:58.200Z,100437.66
2023-09-18T01:29:10.145Z,100442.47
2023-09-18T01:29:22.139Z,100444.94
2023-09-18T01:29:34.184Z,100444.09
2023-09-18T01:29:46.320Z,100437.66
2023-09-18T01:29:58.181Z,100441.63
2023-09-18T01:30:10.954Z,100443.06
2023-09-18T01:30:22.899Z,100444.94
2023-09-18T01:30:34.802Z,100445.19
2023-09-18T01:30:46.720Z,100446.81
2023-09-18T01:30:58.680Z,100439.19
2023-09-18T01:31:10.791Z,100441.63
2023-09-18T01:31:23.331Z,100446.22
2023-09-18T01:31:36.010Z,100447.03
2023-09-18T01:31:48.026Z,100436.47
2023-09-18T01:32:00.266Z,100437.28
2023-09-18T01:32:21.411Z,100441.06
2023-09-18T01:32:36.939Z,100440.00
2023-09-18T01:32:50.417Z,100448.94
2023-09-18T01:33:04.311Z,100438.13
2023-09-18T01:33:17.030Z,100442.72
2023-09-18T01:33:30.629Z,100443.53
2023-09-18T01:33:43.123Z,100450.81
2023-09-18T01:33:56.480Z,100440.81
2023-09-18T01:34:08.828Z,100444.59
2023-09-18T01:34:22.898Z,100435.31
2023-09-18T01:34:37.811Z,100443.78
2023-09-18T01:34:51.305Z,100451.88
2023-09-18T01:35:05.463Z,100436.72
2023-09-18T01:35:17.851Z,100445.63
2023-09-18T01:35:32.426Z,100437.19
2023-09-18T01:35:46.338Z,100442.94
2023-09-18T01:35:59.077Z,100438.00
2023-09-18T01:36:12.520Z,100439.31
2023-09-18T01:36:25.738Z,100444.81
2023-09-18T01:36:37.714Z,100445.06
2023-09-18T01:36:51.484Z,100445.06
2023-09-18T01:37:05.881Z,100444.00
2023-09-18T01:37:23.705Z,100450.47
2023-09-18T01:37:38.461Z,100451.03
2023-09-18T01:37:52.189Z,100438.25
2023-09-18T01:38:07.613Z,100446.72
2023-09-18T01:38:20.387Z,100443.19
2023-09-18T01:38:32.573Z,100440.47
2023-09-18T01:38:46.814Z,100441.78
2023-09-18T01:38:59.120Z,100443.19
2023-09-18T01:39:12.689Z,100445.91
2023-09-18T01:39:26.610Z,100441.31
2023-09-18T01:39:40.225Z,100449.41
2023-09-18T01:39:52.915Z,100451.31
2023-09-18T01:40:06.895Z,100440.72
2023-09-18T01:40:19.820Z,100446.72
2023-09-18T01:40:32.846Z,100443.19
2023-09-18T01:40:45.046Z,100455.88
2023-09-18T01:40:57.660Z,100444.22
2023-09-18T01:41:11.486Z,100448.59
2023-09-18T01:41:24.143Z,100446.13
2023-09-18T01:41:36.446Z,100448.81
2023-09-18T01:41:49.112Z,100445.06
2023-09-18T01:42:01.687Z,100441.78
2023-09-18T01:42:13.889Z,100447.19
2023-09-18T01:42:26.273Z,100447.19
2023-09-18T01:42:38.822Z,100446.13
2023-09-18T01:42:50.787Z,100451.53
2023-09-18T01:43:03.044Z,100446.94
2023-09-18T01:43:15.066Z,100448.00
2023-09-18T01:43:27.089Z,100439.09
2023-09-18T01:43:39.094Z,100448.00
2023-09-18T01:43:51.264Z,100444.72
2023-09-18T01:44:03.574Z,100439.09
2023-09-18T01:44:15.689Z,100452.59
2023-09-18T01:44:27.827Z,100446.59
2023-09-18T01:44:40.223Z,100448.22
2023-09-18T01:44:54.820Z,100441.19
2023-09-18T01:45:08.067Z,100445.53
2023-09-18T01:45:20.355Z,100442.00
2023-09-18T01:45:32.548Z,100445.53
2023-09-18T01:45:45.011Z,100441.19
2023-09-18T01:45:57.075Z,100443.91
2023-09-18T01:46:10.245Z,100443.91
2023-09-18T01:46:22.516Z,100442.00
2023-09-18T01:46:43.182Z,100437.06
2023-09-18T01:46:57.316Z,100436.00
2023-09-18T01:47:13.483Z,100438.72
2023-09-18T01:47:25.603Z,100441.19
2023-09-18T01:47:37.705Z,100438.72
2023-09-18T01:47:49.952Z,100444.94
2023-09-18T01:48:04.584Z,100441.19
2023-09-18T01:48:16.584Z,100446.59
2023-09-18T01:48:28.533Z,100447.66
2023-09-18T01:48:47.172Z,100446.59
2023-09-18T01:48:59.183Z,100442.47
2023-09-18T01:49:12.494Z,100449.31
2023-09-18T01:49:28.676Z,100444.94
2023-09-18T01:49:44.135Z,100444.94
2023-09-18T01:49:56.128Z,100453.66
2023-09-18T01:50:09.503Z,100446.84
2023-09-18T01:50:21.551Z,100446.59
2023-09-18T01:50:33.626Z,100441.91
2023-09-18T01:50:45.517Z,100442.72
2023-09-18T01:50:57.669Z,100451.16
2023-09-18T01:51:17.122Z,100450.34
2023-09-18T01:51:29.791Z,100439.19
2023-09-18T01:51:41.841Z,100445.16
2023-09-18T01:51:53.678Z,100446.00
2023-09-18T01:52:07.202Z,100442.72
2023-09-18T01:52:19.600Z,100441.66
2023-09-18T01:52:31.556Z,100444.34
2023-09-18T01:52:44.978Z,100437.31
2023-09-18T01:52:57.075Z,100447.06
2023-09-18T01:53:09.088Z,100445.44
2023-09-18T01:53:21.287Z,100445.16
2023-09-18T01:53:33.341Z,100445.16
2023-09-18T01:53:45.437Z,100447.66
2023-09-18T01:53:57.592Z,100438.34
2023-09-18T01:54:09.586Z,100449.53
2023-09-18T01:54:21.539Z,100446.00
2023-09-18T01:54:34.512Z,100440.03
2023-09-18T01:54:46.673Z,100446.00
2023-09-18T01:54:59.056Z,100442.47
2023-09-18T01:55:12.447Z,100446.00
2023-09-18T01:55:24.731Z,100447.88
2023-09-18T01:55:38.224Z,100440.59
2023-09-18T01:55:50.118Z,100446.00
2023-09-18T01:56:09.267Z,100445.66
2023-09-18T01:56:21.541Z,100447.88
2023-09-18T01:56:34.363Z,100449.53
2023-09-18T01:56:46.261Z,100441.06
2023-09-18T01:56:58.326Z,100441.91
2023-09-18T01:57:10.323Z,100445.66
2023-09-18T01:57:22.271Z,100440.03
2023-09-18T01:57:34.991Z,100434.59
2023-09-18T01:57:47.146Z,100439.75
2023-09-18T01:57:59.731Z,100438.34
2023-09-18T01:58:12.205Z,100441.91
2023-09-18T01:58:24.838Z,100439.75
2023-09-18T01:58:37.607Z,100440.03
2023-09-18T01:58:50.375Z,100436.50
2023-09-18T01:59:03.072Z,100439.44
2023-09-18T01:59:15.700Z,100448.94
2023-09-18T01:59:28.654Z,100435.91
2023-09-18T01:59:41.084Z,100443.75
2023-09-18T01:59:53.444Z,100445.44
2023-09-18T02:00:07.351Z,100445.44
2023-09-18T02:00:24.319Z,100433.78
2023-09-18T02:00:37.083Z,100443.53
2023-09-18T02:00:50.430Z,100444.34
2023-09-18T02:01:02.719Z,100445.44
2023-09-18T02:01:15.596Z,100440.25
2023-09-18T02:01:27.895Z,100447.88
2023-09-18T02:01:40.737Z,100438.34
2023-09-18T02:01:53.775Z,100438.34
2023-09-18T02:02:06.884Z,100439.19
2023-09-18T02:02:26.070Z,100436.50
2023-09-18T02:02:54.921Z,100445.44
2023-09-18T02:03:40.838Z,100442.94
2023-09-18T02:04:07.584Z,100437.53
2023-09-18T02:05:00.326Z,100448.34
2023-09-18T02:05:06.752Z,100450.25
2023-09-18T02:05:22.578Z,100435.91
2023-09-18T02:05:35.456Z,100441.75
2023-09-18T02:05:48.087Z,100439.66
2023-09-18T02:06:00.373Z,100438.63
2023-09-18T02:06:12.741Z,100447.53
2023-09-18T02:06:25.621Z,100445.06
2023-09-18T02:06:38.105Z,100448.56
2023-09-18T02:06:54.606Z,100445.06
2023-09-18T02:07:07.189Z,100444.25
2023-09-18T02:07:21.401Z,100441.75
2023-09-18T02:07:33.686Z,100443.16
2023-09-18T02:07:47.177Z,100447.53
2023-09-18T02:07:59.578Z,100442.34
2023-09-18T02:08:11.675Z,100441.31
2023-09-18T02:08:23.924Z,100446.13
2023-09-18T02:08:36.229Z,100446.13
2023-09-18T02:08:48.297Z,100446.94
2023-09-18T02:09:00.528Z,100439.66
2023-09-18T02:09:12.627Z,100443.44
2023-09-18T02:09:24.709Z,100446.94
2023-09-18T02:09:36.488Z,100440.47
2023-09-18T02:09:48.669Z,100445.31
2023-09-18T02:10:00.661Z,100444.25
2023-09-18T02:10:12.777Z,100438.84
2023-09-18T02:10:24.732Z,100439.91
2023-09-18T02:10:36.717Z,100440.94
2023-09-18T02:10:48.657Z,100442.63
2023-09-18T02:11:00.714Z,100442.63
2023-09-18T02:11:12.664Z,100439.31
2023-09-18T02:11:25.094Z,100445.53
2023-09-18T02:11:39.293Z,100440.94
2023-09-18T02:11:51.288Z,100441.75
2023-09-18T02:12:03.489Z,100439.31
2023-09-18T02:12:15.466Z,100442.84
2023-09-18T02:12:27.394Z,100437.06
2023-09-18T02:12:39.362Z,100447.66
2023-09-18T02:12:51.371Z,100433.53
2023-09-18T02:13:03.706Z,100442.03
2023-09-18T02:13:15.741Z,100442.47
2023-09-18T02:13:28.160Z,100446.59
2023-09-18T02:13:40.133Z,100443.06
2023-09-18T02:13:52.104Z,100444.94
2023-09-18T02:14:04.061Z,100437.31
2023-09-18T02:14:16.221Z,100443.06
2023-09-18T02:14:28.329Z,100442.25
2023-09-18T02:14:40.509Z,100436.84
2023-09-18T02:14:52.611Z,100438.72
2023-09-18T02:15:05.193Z,100444.13
2023-09-18T02:15:18.005Z,100438.94
2023-09-18T02:15:30.072Z,100445.19
2023-09-18T02:15:41.993Z,100446.25
2023-09-18T02:15:54.813Z,100441.88
2023-09-18T02:16:06.762Z,100437.53
2023-09-18T02:16:19.604Z,100444.34
2023-09-18T02:16:31.711Z,100448.13
2023-09-18T02:16:44.847Z,100450.59
2023-09-18T02:16:56.896Z,100444.59
2023-09-18T02:17:09.113Z,100449.19
2023-09-18T02:17:21.139Z,100447.28
2023-09-18T02:17:33.247Z,100449.19
2023-09-18T02:17:47.488Z,100449.19
2023-09-18T02:17:59.576Z,100449.19
2023-09-18T02:18:14.141Z,100451.88
2023-09-18T02:18:26.281Z,100444.25
2023-09-18T02:18:38.180Z,100443.44
2023-09-18T02:18:50.384Z,100442.13
2023-09-18T02:19:03.468Z,100445.28
2023-09-18T02:19:16.816Z,100452.34
2023-09-18T02:19:28.760Z,100441.53
2023-09-18T02:19:40.934Z,100446.94
2023-09-18T02:19:53.444Z,100440.72
2023-09-18T02:20:07.947Z,100447.19
2023-09-18T02:20:20.166Z,100446.13
2023-09-18T02:20:32.096Z,100442.59
2023-09-18T02:20:44.198Z,100443.66
2023-09-18T02:20:56.063Z,100446.94
2023-09-18T02:21:08.112Z,100443.66
2023-09-18T02:21:20.526Z,100445.28
2023-09-18T02:21:32.604Z,100445.53
2023-09-18T02:21:44.844Z,100441.78
2023-09-18T02:21:57.440Z,100440.97
2023-09-18T02:22:09.622Z,100441.19
2023-09-18T02:22:21.724Z,100438.47
2023-09-18T02:22:33.715Z,100445.53
2023-09-18T02:22:47.252Z,100443.88
2023-09-18T02:22:59.498Z,100443.06
2023-09-18T02:23:11.432Z,100442.84
2023-09-18T02:23:23.397Z,100441.44
2023-09-18T02:23:35.426Z,100440.38
2023-09-18T02:23:50.285Z,100440.38
2023-09-18T02:24:02.415Z,100435.44
2023-09-18T02:24:14.254Z,100443.88
2023-09-18T02:24:26.334Z,100444.69
2023-09-18T02:24:39.908Z,100443.06
2023-09-18T02:24:51.872Z,100439.78
2023-09-18T02:25:06.008Z,100433.78
2023-09-18T02:25:18.621Z,100444.94
2023-09-18T02:25:30.766Z,100448.47
2023-09-18T02:25:42.921Z,100442.47
2023-09-18T02:25:57.932Z,100442.47
2023-09-18T02:26:10.054Z,100451.41
2023-09-18T02:26:24.448Z,100443.78
2023-09-18T02:26:36.836Z,100451.41
2023-09-18T02:26:48.738Z,100448.94
2023-09-18T02:27:00.900Z,100454.09
2023-09-18T02:27:12.819Z,100443.53
2023-09-18T02:27:24.848Z,100447.06
2023-09-18T02:27:36.925Z,100442.69
2023-09-18T02:27:48.993Z,100436.72
2023-09-18T02:28:00.980Z,100444.00
2023-09-18T02:28:12.951Z,100450.47
2023-09-18T02:28:25.364Z,100451.66